首页
METAR-TAF:

METAR-TAF

机场 :

Angoon, 阿拉斯加州, 美国

纬度: 57-30N, 经度: 134-35W, 海拔: 0米

当前天气观测

该预报发布于57分钟前的02:56 UTC
风速10节,风向东转东南
温度 5°C
湿度 87%
气压 1007 hPa
能見度: 16.1公里

METAR: PAGN 260256Z AUTO 11010KT 10SM 05/03 A2975 RMK AO2 RAE35 SLP062 P0000 60000 T00500028 57038 $

时间: 18:53 (03:53 UTC)


TAF: 丢失

超过4000个机场的气象观测和天气预报(METAR&TAF报告)。

可查询的气象台以黄色和红色小点在地图上表示。

将鼠标移到小点上方,可查看气象台名称。

然后点击查看天气观测和预报。

如需切换地图:点击带黑十字的绿色按钮放大地图;点击带横线的绿色按钮缩小地图;或者点击绿色箭头查看邻近地区的地图。


METAR-TAF: